Maersk Barry — OYJE2 — position and weather

sailwx.info

Track history (hours):
 
Tides and Currents Weather Stations Pressure Air Temp Water Temp Dewpoint Dewpoint Depression Visibility Wind Speed Wind Dir Waves Ship Positions

Maersk Barry

Last reported at 2014-Oct-21 06:33 UTC. Time now 2014-Oct-21 07:04 UTC.
Position N 40°59' E 028°58'.

Length 175 m; draft 8.7 m.

Type: Tanker. MMSI: 219127000.

Date/timePositionNaut miles runAvg speedWind from/ knotsBaromVisibWave heightAir tempDewpointWater temp
2014-Oct-21 06:33N 40°59' E 028°58'34 3.8
2014-Oct-20 21:33N 41°32' E 029°11'324 9.0
2014-Oct-19 09:34N 46°36' E 031°46'9 8.7
2014-Oct-19 08:33N 46°41' E 031°56'8 8.4
2014-Oct-19 07:34N 46°50' E 031°55'7 7.4
2014-Oct-19 06:33N 46°56' E 032°00'1 0.6
2014-Oct-19 05:32N 46°57' E 031°60'0 0.0
2014-Oct-19 04:32N 46°57' E 031°60'0 0.0
2014-Oct-19 03:32N 46°57' E 031°60'0 0.0
2014-Oct-19 02:32N 46°57' E 031°60'0 0.0
2014-Oct-19 01:32N 46°57' E 031°60'0 0.0
2014-Oct-19 00:32N 46°57' E 031°60'0 0.0
2014-Oct-18 23:32N 46°57' E 031°60'0 0.0
2014-Oct-18 22:29N 46°57' E 031°60'0 0.0
2014-Oct-18 21:32N 46°57' E 031°60'0 0.0
2014-Oct-18 20:32N 46°57' E 031°60'0 0.0
2014-Oct-18 19:32N 46°57' E 031°60'0 0.0
2014-Oct-18 18:32N 46°57' E 031°60'0 0.0
2014-Oct-18 17:32N 46°57' E 031°60'0 0.0
2014-Oct-18 16:32N 46°57' E 031°60'0 0.0
2014-Oct-18 15:32N 46°57' E 031°60'0 0.0
2014-Oct-18 14:32N 46°57' E 031°60'0 0.0
2014-Oct-18 13:32N 46°57' E 031°60'0 0.0
2014-Oct-18 12:32N 46°57' E 031°60'0 0.0
2014-Oct-18 11:29N 46°57' E 031°60'0 0.0
2014-Oct-18 10:32N 46°57' E 031°60'0 0.0
2014-Oct-18 09:32N 46°57' E 031°60'0 0.0
2014-Oct-18 08:32N 46°57' E 031°60'0 0.0
2014-Oct-18 07:29N 46°57' E 031°60'0 0.0
2014-Oct-18 06:32N 46°57' E 031°60'0 0.0
2014-Oct-18 05:32N 46°57' E 031°60'0 0.0
2014-Oct-18 04:32N 46°57' E 031°60'0 0.0
2014-Oct-18 03:32N 46°57' E 031°60'0 0.0
2014-Oct-18 02:32N 46°57' E 031°60'0 0.0
2014-Oct-18 01:32N 46°57' E 031°60'0 0.0
2014-Oct-18 00:32N 46°57' E 031°60'0 0.0
2014-Oct-17 23:32N 46°57' E 031°60'0 0.0
2014-Oct-17 22:32N 46°57' E 031°60'0 0.0
2014-Oct-17 21:32N 46°57' E 031°60'0 0.0
2014-Oct-17 20:32N 46°57' E 031°60'0 0.0
2014-Oct-17 19:32N 46°57' E 031°60'0 0.0
2014-Oct-17 18:32N 46°57' E 031°60'0 0.0
2014-Oct-17 17:32N 46°57' E 031°60'0 0.0
2014-Oct-17 16:32N 46°57' E 031°60'0 0.0
2014-Oct-17 15:32N 46°57' E 031°60'0 0.0
2014-Oct-17 14:29N 46°57' E 031°60'0 0.0
2014-Oct-17 13:32N 46°57' E 031°60'0 0.0
2014-Oct-17 12:32N 46°57' E 031°60'0 0.0
2014-Oct-17 11:29N 46°57' E 031°60'0 0.0
2014-Oct-17 10:29N 46°57' E 031°60'0 0.0
2014-Oct-17 09:32N 46°57' E 031°60'0 0.0
2014-Oct-17 08:32N 46°57' E 031°60'0 0.0
2014-Oct-17 07:32N 46°57' E 031°60'0 0.0
2014-Oct-17 06:32N 46°57' E 031°60'0 0.0
2014-Oct-17 05:32N 46°57' E 031°60'0 0.0
2014-Oct-17 04:32N 46°57' E 031°60'0 0.0
2014-Oct-17 03:29N 46°57' E 031°60'0 0.0
2014-Oct-17 02:32N 46°57' E 031°60'0 0.0
2014-Oct-17 01:32N 46°57' E 031°60'0 0.0
2014-Oct-17 00:32N 46°57' E 031°60'0 0.0
2014-Oct-16 23:32N 46°57' E 031°60'0 0.0
2014-Oct-16 22:32N 46°57' E 031°60'0 0.0
2014-Oct-16 21:32N 46°57' E 031°60'0 0.0
2014-Oct-16 20:32N 46°57' E 031°60'0 0.0
2014-Oct-16 19:32N 46°57' E 031°60'0 0.0
2014-Oct-16 18:32N 46°57' E 031°60'0 0.0
2014-Oct-16 17:32N 46°57' E 031°60'0 0.0
2014-Oct-16 16:32N 46°57' E 031°60'0 0.0
2014-Oct-16 15:29N 46°57' E 031°60'0 0.0
2014-Oct-16 14:32N 46°57' E 031°60'0 0.0
2014-Oct-16 13:32N 46°57' E 031°60'0 0.0
2014-Oct-16 12:32N 46°57' E 031°60'0 0.0
2014-Oct-16 11:32N 46°57' E 031°60'0 0.0
2014-Oct-16 10:32N 46°57' E 031°60'0 0.0
2014-Oct-16 09:32N 46°57' E 031°60'0 0.0
2014-Oct-16 08:32N 46°57' E 031°60'0 0.0
2014-Oct-16 07:29N 46°57' E 031°60'0 0.5
2014-Oct-16 06:34N 46°56' E 032°00'0 0.0
2014-Oct-16 05:31N 46°56' E 032°00'0 0.0
2014-Oct-16 04:31N 46°56' E 032°00'0 0.0
2014-Oct-16 03:31N 46°56' E 032°00'0 0.0
2014-Oct-16 02:31N 46°56' E 032°00'0 0.0
2014-Oct-16 01:31N 46°56' E 032°00'0 0.0
2014-Oct-16 00:31N 46°56' E 032°00'0 0.0
2014-Oct-15 23:31N 46°56' E 032°00'0 0.0
2014-Oct-15 22:31N 46°56' E 032°00'0 0.0
2014-Oct-15 21:31N 46°56' E 032°00'0 0.0
2014-Oct-15 20:31N 46°56' E 032°00'0 0.0
2014-Oct-15 19:31N 46°56' E 032°00'0 0.1
2014-Oct-15 18:34N 46°56' E 032°00'6 5.8
2014-Oct-15 17:33N 46°51' E 031°57'7 7.4
2014-Oct-15 16:33N 46°44' E 031°56'1010.4
2014-Oct-15 15:33N 46°36' E 031°46'1211.3
2014-Oct-15 14:28N 46°35' E 031°28'23 2.3
2014-Oct-15 04:20N 46°18' E 031°06'1910.9
2014-Oct-15 02:34N 45°59' E 031°06'1212.4
2014-Oct-15 01:34N 45°48' E 030°59'1312.4
2014-Oct-15 00:31N 45°36' E 030°53'1212.4
2014-Oct-14 23:31N 45°24' E 030°47'3712.3
2014-Oct-14 20:33N 44°49' E 030°33'2512.3
2014-Oct-14 18:31N 44°25' E 030°23'186 8.3
2014-Oct-13 20:08N 41°25' E 029°16'711.4
2014-Oct-13 19:33N 41°19' E 029°13'  
2014-Oct-11 15:25N 37°47' E 024°33'8 9.4
2014-Oct-11 14:33N 37°39' E 024°29'9 9.5
2014-Oct-11 13:33N 37°31' E 024°23'1110.7
2014-Oct-11 12:33N 37°22' E 024°15'1110.6
2014-Oct-11 11:33N 37°13' E 024°08'1210.6
2014-Oct-11 10:24N 37°03' E 023°59'910.3
2014-Oct-11 09:32N 36°56' E 023°53'  
Track history (hours):
 
Tides and Currents Weather Stations Pressure Air Temp Water Temp Dewpoint Dewpoint Depression Visibility Wind Speed Wind Dir Waves Ship Positions

Maersk Barry

Last reported at 2014-Oct-21 06:33 UTC. Time now 2014-Oct-21 07:04 UTC.
Position N 40°59' E 028°58'.

Length 175 m; draft 8.7 m.

Type: Tanker. MMSI: 219127000.

Date/timePositionNaut miles runAvg speedWind from/ knotsBaromVisibWave heightAir tempDewpointWater temp
2014-Oct-21 06:33N 40°59' E 028°58'34 3.8
2014-Oct-20 21:33N 41°32' E 029°11'324 9.0
2014-Oct-19 09:34N 46°36' E 031°46'9 8.7
2014-Oct-19 08:33N 46°41' E 031°56'8 8.4
2014-Oct-19 07:34N 46°50' E 031°55'7 7.4
2014-Oct-19 06:33N 46°56' E 032°00'1 0.6
2014-Oct-19 05:32N 46°57' E 031°60'0 0.0
2014-Oct-19 04:32N 46°57' E 031°60'0 0.0
2014-Oct-19 03:32N 46°57' E 031°60'0 0.0
2014-Oct-19 02:32N 46°57' E 031°60'0 0.0
2014-Oct-19 01:32N 46°57' E 031°60'0 0.0
2014-Oct-19 00:32N 46°57' E 031°60'0 0.0
2014-Oct-18 23:32N 46°57' E 031°60'0 0.0
2014-Oct-18 22:29N 46°57' E 031°60'0 0.0
2014-Oct-18 21:32N 46°57' E 031°60'0 0.0
2014-Oct-18 20:32N 46°57' E 031°60'0 0.0
2014-Oct-18 19:32N 46°57' E 031°60'0 0.0
2014-Oct-18 18:32N 46°57' E 031°60'0 0.0
2014-Oct-18 17:32N 46°57' E 031°60'0 0.0
2014-Oct-18 16:32N 46°57' E 031°60'0 0.0
2014-Oct-18 15:32N 46°57' E 031°60'0 0.0
2014-Oct-18 14:32N 46°57' E 031°60'0 0.0
2014-Oct-18 13:32N 46°57' E 031°60'0 0.0
2014-Oct-18 12:32N 46°57' E 031°60'0 0.0
2014-Oct-18 11:29N 46°57' E 031°60'0 0.0
2014-Oct-18 10:32N 46°57' E 031°60'0 0.0
2014-Oct-18 09:32N 46°57' E 031°60'0 0.0
2014-Oct-18 08:32N 46°57' E 031°60'0 0.0
2014-Oct-18 07:29N 46°57' E 031°60'0 0.0
2014-Oct-18 06:32N 46°57' E 031°60'0 0.0
2014-Oct-18 05:32N 46°57' E 031°60'0 0.0
2014-Oct-18 04:32N 46°57' E 031°60'0 0.0
2014-Oct-18 03:32N 46°57' E 031°60'0 0.0
2014-Oct-18 02:32N 46°57' E 031°60'0 0.0
2014-Oct-18 01:32N 46°57' E 031°60'0 0.0
2014-Oct-18 00:32N 46°57' E 031°60'0 0.0
2014-Oct-17 23:32N 46°57' E 031°60'0 0.0
2014-Oct-17 22:32N 46°57' E 031°60'0 0.0
2014-Oct-17 21:32N 46°57' E 031°60'0 0.0
2014-Oct-17 20:32N 46°57' E 031°60'0 0.0
2014-Oct-17 19:32N 46°57' E 031°60'0 0.0
2014-Oct-17 18:32N 46°57' E 031°60'0 0.0
2014-Oct-17 17:32N 46°57' E 031°60'0 0.0
2014-Oct-17 16:32N 46°57' E 031°60'0 0.0
2014-Oct-17 15:32N 46°57' E 031°60'0 0.0
2014-Oct-17 14:29N 46°57' E 031°60'0 0.0
2014-Oct-17 13:32N 46°57' E 031°60'0 0.0
2014-Oct-17 12:32N 46°57' E 031°60'0 0.0
2014-Oct-17 11:29N 46°57' E 031°60'0 0.0
2014-Oct-17 10:29N 46°57' E 031°60'0 0.0
2014-Oct-17 09:32N 46°57' E 031°60'0 0.0
2014-Oct-17 08:32N 46°57' E 031°60'0 0.0
2014-Oct-17 07:32N 46°57' E 031°60'0 0.0
2014-Oct-17 06:32N 46°57' E 031°60'0 0.0
2014-Oct-17 05:32N 46°57' E 031°60'0 0.0
2014-Oct-17 04:32N 46°57' E 031°60'0 0.0
2014-Oct-17 03:29N 46°57' E 031°60'0 0.0
2014-Oct-17 02:32N 46°57' E 031°60'0 0.0
2014-Oct-17 01:32N 46°57' E 031°60'0 0.0
2014-Oct-17 00:32N 46°57' E 031°60'0 0.0
2014-Oct-16 23:32N 46°57' E 031°60'0 0.0
2014-Oct-16 22:32N 46°57' E 031°60'0 0.0
2014-Oct-16 21:32N 46°57' E 031°60'0 0.0
2014-Oct-16 20:32N 46°57' E 031°60'0 0.0
2014-Oct-16 19:32N 46°57' E 031°60'0 0.0
2014-Oct-16 18:32N 46°57' E 031°60'0 0.0
2014-Oct-16 17:32N 46°57' E 031°60'0 0.0
2014-Oct-16 16:32N 46°57' E 031°60'0 0.0
2014-Oct-16 15:29N 46°57' E 031°60'0 0.0
2014-Oct-16 14:32N 46°57' E 031°60'0 0.0
2014-Oct-16 13:32N 46°57' E 031°60'0 0.0
2014-Oct-16 12:32N 46°57' E 031°60'0 0.0
2014-Oct-16 11:32N 46°57' E 031°60'0 0.0
2014-Oct-16 10:32N 46°57' E 031°60'0 0.0
2014-Oct-16 09:32N 46°57' E 031°60'0 0.0
2014-Oct-16 08:32N 46°57' E 031°60'0 0.0
2014-Oct-16 07:29N 46°57' E 031°60'0 0.5
2014-Oct-16 06:34N 46°56' E 032°00'0 0.0
2014-Oct-16 05:31N 46°56' E 032°00'0 0.0
2014-Oct-16 04:31N 46°56' E 032°00'0 0.0
2014-Oct-16 03:31N 46°56' E 032°00'0 0.0
2014-Oct-16 02:31N 46°56' E 032°00'0 0.0
2014-Oct-16 01:31N 46°56' E 032°00'0 0.0
2014-Oct-16 00:31N 46°56' E 032°00'0 0.0
2014-Oct-15 23:31N 46°56' E 032°00'0 0.0
2014-Oct-15 22:31N 46°56' E 032°00'0 0.0
2014-Oct-15 21:31N 46°56' E 032°00'0 0.0
2014-Oct-15 20:31N 46°56' E 032°00'0 0.0
2014-Oct-15 19:31N 46°56' E 032°00'0 0.1
2014-Oct-15 18:34N 46°56' E 032°00'6 5.8
2014-Oct-15 17:33N 46°51' E 031°57'7 7.4
2014-Oct-15 16:33N 46°44' E 031°56'1010.4
2014-Oct-15 15:33N 46°36' E 031°46'1211.3
2014-Oct-15 14:28N 46°35' E 031°28'23 2.3
2014-Oct-15 04:20N 46°18' E 031°06'1910.9
2014-Oct-15 02:34N 45°59' E 031°06'1212.4
2014-Oct-15 01:34N 45°48' E 030°59'1312.4
2014-Oct-15 00:31N 45°36' E 030°53'1212.4
2014-Oct-14 23:31N 45°24' E 030°47'3712.3
2014-Oct-14 20:33N 44°49' E 030°33'2512.3
2014-Oct-14 18:31N 44°25' E 030°23'186 8.3
2014-Oct-13 20:08N 41°25' E 029°16'711.4
2014-Oct-13 19:33N 41°19' E 029°13'  
2014-Oct-11 15:25N 37°47' E 024°33'8 9.4
2014-Oct-11 14:33N 37°39' E 024°29'9 9.5
2014-Oct-11 13:33N 37°31' E 024°23'1110.7
2014-Oct-11 12:33N 37°22' E 024°15'1110.6
2014-Oct-11 11:33N 37°13' E 024°08'1210.6
2014-Oct-11 10:24N 37°03' E 023°59'910.3
2014-Oct-11 09:32N 36°56' E 023°53'  

Dump ship's entire track history